Time;durP1;ratioP1;P1;durP2;ratioP2;P2;SDS_P1;SDS_P2;PMS_P1;PMS_P2;Temp;Humidity;BMP_temperature;BMP_pressure;BME280_temperature;BME280_humidity;BME280_pressure;Samples;Min_cycle;Max_cycle;Signal;HPM_P1;HPM_P2
2022/08/22 00:00:15;;;;;;;;;;;;;;;28.39;80.26;154800.73;1736881;82;21095;-72
2022/08/22 00:02:48;;;;;;;;;;;;;;;28.40;80.46;154803.36;1734001;81;20145;-59
2022/08/22 00:05:36;;;;;;;;;;;;;;;28.48;80.17;154824.39;1726204;82;20194;-60
2022/08/22 00:08:25;;;;;;;;;;;;;;;28.49;78.66;154827.00;1703048;84;20189;-72
2022/08/22 00:11:15;;;;;;;;;;;;;;;28.51;78.07;154832.25;1702959;84;20199;-73
2022/08/22 00:13:46;;;;;;;;;;;;;;;28.55;77.86;154841.45;1703422;82;21760;-71
2022/08/22 00:16:26;;;;;;;;;;;;;;;28.55;77.32;154842.75;1702615;84;20186;-71
2022/08/22 00:19:22;;;;;;;;;;;;;;;28.54;76.65;154840.13;1694519;84;20182;-59
2022/08/22 00:22:07;;;;;;;;;;;;;;;28.57;76.75;154846.70;1702643;84;20217;-60
2022/08/22 00:24:54;;;;;;;;;;;;;;;28.60;75.74;154855.86;1702931;82;20254;-73
2022/08/22 00:27:22;;;;;;;;;;;;;;;28.54;75.14;154840.13;1702601;84;21294;-71
2022/08/22 00:29:56;;;;;;;;;;;;;;;28.54;74.07;154840.13;1702796;84;20246;-71
2022/08/22 00:32:28;;;;;;;;;;;;;;;28.58;73.71;154849.33;1702776;84;20181;-60
2022/08/22 00:35:05;;;;;;;;;;;;;;;28.64;73.34;154863.78;1702735;83;20182;-58
2022/08/22 00:37:40;;;;;;;;;;;;;;;28.58;73.64;154850.61;1702577;84;20206;-59
2022/08/22 00:40:23;;;;;;;;;;;;;;;28.52;74.91;154834.88;1702503;84;21140;-58
2022/08/22 00:43:06;;;;;;;;;;;;;;;28.44;75.61;154815.19;1703379;84;20137;-70
2022/08/22 00:46:07;;;;;;;;;;;;;;;28.38;76.88;154798.11;1675678;84;20454;-73
2022/08/22 00:49:13;;;;;;;;;;;;;;;28.26;77.92;154767.94;1702964;84;20613;-73
2022/08/22 00:51:55;;;;;;;;;;;;;;;28.22;78.43;154758.78;1702977;84;20198;-60
2022/08/22 00:54:37;;;;;;;;;;;;;;;28.19;78.65;154749.56;1702473;82;21240;-58
2022/08/22 00:57:22;;;;;;;;;;;;;;;28.10;79.11;154728.53;1702600;83;20478;-59
2022/08/22 00:59:59;;;;;;;;;;;;;;;28.02;79.18;154708.84;1702821;84;20418;-58
2022/08/22 01:02:44;;;;;;;;;;;;;;;27.87;79.79;154669.47;1686893;83;20178;-59
2022/08/22 01:05:36;;;;;;;;;;;;;;;27.74;80.56;154636.67;1696457;84;20188;-59
2022/08/22 01:08:21;;;;;;;;;;;;;;;27.69;80.46;154623.56;1674282;85;21199;-59
2022/08/22 01:11:15;;;;;;;;;;;;;;;27.59;80.46;154599.92;1674737;85;20181;-73
2022/08/22 01:13:51;;;;;;;;;;;;;;;27.44;80.57;154561.84;1674659;84;20200;-73
2022/08/22 01:16:43;;;;;;;;;;;;;;;27.30;80.89;154525.09;1672109;84;20618;-59
2022/08/22 01:19:42;;;;;;;;;;;;;;;27.22;81.23;154504.13;1663924;82;20168;-59
2022/08/22 01:22:32;;;;;;;;;;;;;;;27.13;81.61;154481.83;1734875;81;21222;-73
2022/08/22 01:25:36;;;;;;;;;;;;;;;27.05;81.83;154460.86;1735109;82;20183;-72
2022/08/22 01:28:40;;;;;;;;;;;;;;;26.90;82.31;154422.83;1735739;82;20211;-58
2022/08/22 01:31:14;;;;;;;;;;;;;;;26.78;82.59;154393.91;1734763;81;20212;-72
2022/08/22 01:34:19;;;;;;;;;;;;;;;26.76;83.14;154388.67;1734979;82;35504;-72
2022/08/22 01:37:06;;;;;;;;;;;;;;;26.72;83.20;154378.19;1735236;82;21280;-60
2022/08/22 01:39:57;;;;;;;;;;;;;;;26.68;83.42;154367.70;1734730;81;20432;-58
2022/08/22 01:42:46;;;;;;;;;;;;;;;26.63;83.45;154354.56;1734879;82;20607;-61
2022/08/22 01:45:20;;;;;;;;;;;;;;;26.60;83.54;154349.31;1734683;82;20834;-74
2022/08/22 01:47:55;;;;;;;;;;;;;;;26.59;83.35;154346.70;1735160;81;20180;-74
2022/08/22 01:50:34;;;;;;;;;;;;;;;26.52;84.62;154328.36;1735231;82;21848;-74
2022/08/22 01:53:17;;;;;;;;;;;;;;;26.46;86.36;154312.64;1735616;81;20140;-72
2022/08/22 01:55:56;;;;;;;;;;;;;;;26.42;87.41;154303.44;1735305;82;20180;-74
2022/08/22 01:58:26;;;;;;;;;;;;;;;26.35;88.55;154283.77;1732183;82;20123;-74
2022/08/22 02:01:17;;;;;;;;;;;;;;;26.27;89.17;154265.44;1735224;82;20520;-73
2022/08/22 02:04:18;;;;;;;;;;;;;;;26.18;89.83;154241.81;1735598;81;21085;-73
2022/08/22 02:07:09;;;;;;;;;;;;;;;26.11;90.32;154223.42;1707764;82;20178;-72
2022/08/22 02:09:39;;;;;;;;;;;;;;;26.00;90.68;154197.23;1702775;84;20218;-71
2022/08/22 02:12:22;;;;;;;;;;;;;;;25.91;91.28;154172.33;1720915;82;20186;-73
2022/08/22 02:15:01;;;;;;;;;;;;;;;25.86;91.33;154161.84;1735338;81;20177;-72
2022/08/22 02:17:30;;;;;;;;;;;;;;;25.80;91.62;154144.80;1735105;82;21240;-70
2022/08/22 02:20:12;;;;;;;;;;;;;;;25.81;91.74;154147.42;1719611;82;21037;-72
2022/08/22 02:22:53;;;;;;;;;;;;;;;25.77;91.25;154136.95;1717569;82;20185;-72
2022/08/22 02:25:23;;;;;;;;;;;;;;;25.69;91.52;154118.56;1716000;82;20309;-71
2022/08/22 02:28:03;;;;;;;;;;;;;;;25.70;91.79;154121.19;1717593;82;20223;-58
2022/08/22 02:30:48;;;;;;;;;;;;;;;25.70;91.65;154121.19;1717216;82;21084;-59
2022/08/22 02:33:34;;;;;;;;;;;;;;;25.66;91.62;154110.70;1717526;83;20229;-71
2022/08/22 02:36:04;;;;;;;;;;;;;;;25.58;91.25;154091.05;1717501;83;20233;-59
2022/08/22 02:39:08;;;;;;;;;;;;;;;25.44;91.63;154055.62;1717252;82;20541;-59
2022/08/22 02:41:45;;;;;;;;;;;;;;;25.37;91.81;154037.30;1717464;82;20465;-59
2022/08/22 02:44:29;;;;;;;;;;;;;;;25.36;91.95;154033.34;1715563;83;22398;-59
2022/08/22 02:47:11;;;;;;;;;;;;;;;25.31;91.57;154021.53;1717545;82;20507;-72
2022/08/22 02:50:01;;;;;;;;;;;;;;;25.25;91.89;154005.83;1717554;83;20197;-59
2022/08/22 02:52:47;;;;;;;;;;;;;;;25.23;91.92;154001.94;1717691;83;20212;-59
2022/08/22 02:55:29;;;;;;;;;;;;;;;25.21;91.81;153995.36;1719733;82;20234;-59
2022/08/22 02:58:06;;;;;;;;;;;;;;;25.21;91.55;153995.36;1735233;82;21249;-59
2022/08/22 03:00:46;;;;;;;;;;;;;;;25.18;90.87;153990.13;1734860;82;20159;-58
2022/08/22 03:03:25;;;;;;;;;;;;;;;25.11;90.46;153971.80;1734666;82;20191;-59
2022/08/22 03:06:06;;;;;;;;;;;;;;;25.04;90.89;153953.42;1719549;82;20202;-58
2022/08/22 03:08:39;;;;;;;;;;;;;;;25.03;90.87;153950.80;1702727;84;20174;-58
2022/08/22 03:11:26;;;;;;;;;;;;;;;25.09;90.64;153966.56;1707308;82;21319;-59
2022/08/22 03:14:20;;;;;;;;;;;;;;;25.10;90.26;153969.17;1735353;81;20465;-58
2022/08/22 03:16:57;;;;;;;;;;;;;;;25.12;89.73;153974.41;1735271;81;20167;-71
2022/08/22 03:19:43;;;;;;;;;;;;;;;25.09;88.93;153966.56;1712860;83;20197;-73
2022/08/22 03:22:22;;;;;;;;;;;;;;;25.03;89.14;153952.14;1725664;83;20201;-72
2022/08/22 03:25:22;;;;;;;;;;;;;;;25.02;89.32;153948.19;1723976;83;21144;-73
2022/08/22 03:27:52;;;;;;;;;;;;;;;25.05;88.27;153956.03;1725564;82;20472;-72
2022/08/22 03:30:43;;;;;;;;;;;;;;;24.97;87.86;153935.09;1725801;81;20220;-72
2022/08/22 03:33:24;;;;;;;;;;;;;;;24.94;87.57;153927.25;1726531;81;20156;-58
2022/08/22 03:35:57;;;;;;;;;;;;;;;24.99;86.93;153940.33;1725840;83;20239;-58
2022/08/22 03:38:33;;;;;;;;;;;;;;;24.98;85.79;153937.72;1725624;83;21262;-58
2022/08/22 03:41:19;;;;;;;;;;;;;;;25.01;85.72;153945.56;1725713;81;20204;-58
2022/08/22 03:44:10;;;;;;;;;;;;;;;25.10;85.38;153969.17;1725867;83;20394;-59
2022/08/22 03:46:46;;;;;;;;;;;;;;;25.23;83.91;154000.59;1725701;83;20642;-58
2022/08/22 03:49:25;;;;;;;;;;;;;;;25.37;82.67;154035.97;1725638;83;20227;-58
2022/08/22 03:52:29;;;;;;;;;;;;;;;25.45;81.63;154058.25;1725808;81;21128;-60
2022/08/22 03:55:00;;;;;;;;;;;;;;;25.48;80.49;154063.53;1725417;81;20205;-58
2022/08/22 03:57:43;;;;;;;;;;;;;;;25.52;79.86;154074.00;1701634;84;20182;-59
2022/08/22 04:00:30;;;;;;;;;;;;;;;25.54;79.81;154079.28;1701168;83;20798;-58
2022/08/22 04:03:19;;;;;;;;;;;;;;;25.64;79.06;154104.14;1701246;83;20202;-58
2022/08/22 04:05:56;;;;;;;;;;;;;;;25.65;78.57;154108.09;1702059;84;21609;-60
2022/08/22 04:08:41;;;;;;;;;;;;;;;25.64;78.48;154104.14;1702616;84;20194;-60
2022/08/22 04:11:31;;;;;;;;;;;;;;;25.69;78.63;154117.28;1707748;82;20203;-58
2022/08/22 04:14:07;;;;;;;;;;;;;;;25.70;78.04;154121.19;1735133;81;20199;-58
2022/08/22 04:16:59;;;;;;;;;;;;;;;25.70;77.31;154119.91;1731598;82;20179;-59
2022/08/22 04:20:03;;;;;;;;;;;;;;;25.67;76.33;154113.33;1711414;82;21143;-59
2022/08/22 04:22:43;;;;;;;;;;;;;;;25.69;75.42;154118.56;1701259;84;20148;-60
2022/08/22 04:25:35;;;;;;;;;;;;;;;25.79;74.16;154142.19;1700462;84;20570;-59
2022/08/22 04:28:14;;;;;;;;;;;;;;;25.83;73.03;154153.94;1701236;84;20173;-59
2022/08/22 04:30:46;;;;;;;;;;;;;;;25.84;72.83;154155.28;1701465;84;20201;-59
2022/08/22 04:33:23;;;;;;;;;;;;;;;25.91;72.42;154173.61;1700987;83;21850;-60
2022/08/22 04:36:20;;;;;;;;;;;;;;;25.98;72.24;154190.66;1701260;84;20141;-60
2022/08/22 04:38:53;;;;;;;;;;;;;;;26.12;72.01;154227.38;1701468;84;20196;-59
2022/08/22 04:41:23;;;;;;;;;;;;;;;26.31;70.78;154274.63;1701190;84;20184;-59
2022/08/22 04:43:56;;;;;;;;;;;;;;;26.42;70.07;154302.16;1701214;84;20290;-59
2022/08/22 04:46:34;;;;;;;;;;;;;;;26.53;69.74;154330.98;1701057;83;21141;-59
2022/08/22 04:49:23;;;;;;;;;;;;;;;26.66;69.08;154362.47;1701193;83;20168;-58
2022/08/22 04:51:53;;;;;;;;;;;;;;;26.78;68.12;154393.91;1701289;84;20374;-59
2022/08/22 04:54:38;;;;;;;;;;;;;;;26.87;67.36;154417.59;1701169;84;20510;-59
2022/08/22 04:57:11;;;;;;;;;;;;;;;27.00;66.94;154449.03;1671139;84;20535;-58
2022/08/22 04:59:39;;;;;;;;;;;;;;;27.17;66.08;154492.31;1701793;82;21232;-59
2022/08/22 05:02:08;;;;;;;;;;;;;;;27.29;64.55;154523.81;1702501;83;20711;-59
2022/08/22 05:04:38;;;;;;;;;;;;;;;27.35;63.64;154536.91;1702492;83;20224;-58
2022/08/22 05:07:11;;;;;;;;;;;;;;;27.39;63.26;154547.39;1675963;84;20162;-59
2022/08/22 05:09:41;;;;;;;;;;;;;;;27.42;62.56;154556.59;1703131;84;20191;-70
2022/08/22 05:12:13;;;;;;;;;;;;;;;27.52;62.51;154580.23;1703110;84;21089;-70
2022/08/22 05:14:46;;;;;;;;;;;;;;;27.62;62.40;154606.50;1702715;83;20203;-69
2022/08/22 05:17:18;;;;;;;;;;;;;;;27.77;62.85;154643.25;1702457;84;20193;-70
2022/08/22 05:19:49;;;;;;;;;;;;;;;27.96;63.01;154693.06;1720831;82;20157;-70
2022/08/22 05:22:18;;;;;;;;;;;;;;;28.15;62.51;154740.31;1726308;83;20195;-69
2022/08/22 05:24:47;;;;;;;;;;;;;;;28.30;61.94;154779.75;1725194;81;21355;-59
2022/08/22 05:27:21;;;;;;;;;;;;;;;28.40;60.61;154803.36;1725710;81;20220;-59
2022/08/22 05:29:49;;;;;;;;;;;;;;;28.47;60.96;154820.44;1725177;83;20209;-59
2022/08/22 05:32:26;;;;;;;;;;;;;;;28.53;59.53;154837.50;1725837;81;20449;-59
2022/08/22 05:34:54;;;;;;;;;;;;;;;28.50;59.71;154829.63;1723861;83;20698;-59
2022/08/22 05:37:28;;;;;;;;;;;;;;;28.71;60.26;154882.14;1726179;83;21084;-59
2022/08/22 05:39:56;;;;;;;;;;;;;;;28.97;59.29;154949.16;1722176;83;20630;-59
2022/08/22 05:42:29;;;;;;;;;;;;;;;29.15;58.97;154993.75;1725528;83;20619;-59
2022/08/22 05:44:56;;;;;;;;;;;;;;;29.22;58.62;155010.84;1725899;81;20230;-59
2022/08/22 05:47:28;;;;;;;;;;;;;;;29.30;57.98;155031.88;1725553;81;20197;-58
2022/08/22 05:50:12;;;;;;;;;;;;;;;29.37;57.95;155050.25;1725611;81;21232;-59
2022/08/22 05:53:04;;;;;;;;;;;;;;;29.43;57.62;155066.03;1719008;83;20218;-59
2022/08/22 05:55:38;;;;;;;;;;;;;;;29.49;56.50;155079.16;1702338;83;20237;-59
2022/08/22 05:58:20;;;;;;;;;;;;;;;29.30;56.96;155033.16;1699341;83;20270;-58
2022/08/22 06:00:50;;;;;;;;;;;;;;;29.14;57.28;154992.47;1698134;84;20182;-59
2022/08/22 06:03:26;;;;;;;;;;;;;;;29.04;58.64;154966.19;1700454;84;21209;-58
2022/08/22 06:05:55;;;;;;;;;;;;;;;29.09;58.44;154978.02;1698665;83;20183;-59
2022/08/22 06:08:28;;;;;;;;;;;;;;;28.91;58.01;154933.38;1700427;84;20174;-60
2022/08/22 06:10:57;;;;;;;;;;;;;;;28.65;59.13;154866.41;1695092;82;20182;-58
2022/08/22 06:13:37;;;;;;;;;;;;;;;28.45;59.88;154817.81;1699369;84;20225;-59
2022/08/22 06:16:24;;;;;;;;;;;;;;;28.26;60.77;154769.27;1698780;84;21257;-57
2022/08/22 06:18:51;;;;;;;;;;;;;;;28.12;61.42;154732.45;1701486;82;20182;-59
2022/08/22 06:21:36;;;;;;;;;;;;;;;28.12;61.59;154732.45;1701675;82;20476;-58
2022/08/22 06:24:04;;;;;;;;;;;;;;;28.05;61.08;154715.38;1700924;84;20221;-59
2022/08/22 06:26:36;;;;;;;;;;;;;;;27.85;62.06;154665.56;1702107;84;20455;-70
2022/08/22 06:29:03;;;;;;;;;;;;;;;27.87;62.91;154669.47;1699548;83;21153;-70
2022/08/22 06:31:33;;;;;;;;;;;;;;;27.96;62.88;154691.78;1699808;84;20205;-69
2022/08/22 06:34:12;;;;;;;;;;;;;;;27.98;62.10;154698.36;1701735;84;20195;-70
2022/08/22 06:36:43;;;;;;;;;;;;;;;27.94;62.63;154687.83;1700064;84;20209;-58
2022/08/22 06:39:25;;;;;;;;;;;;;;;28.03;63.04;154710.14;1703388;83;20182;-58
2022/08/22 06:41:56;;;;;;;;;;;;;;;28.14;62.52;154737.69;1702855;84;20629;-59
2022/08/22 06:44:26;;;;;;;;;;;;;;;28.30;62.27;154778.47;1699520;83;20252;-59
2022/08/22 06:46:55;;;;;;;;;;;;;;;28.45;61.52;154816.52;1701958;84;20190;-58
2022/08/22 06:49:22;;;;;;;;;;;;;;;28.62;61.44;154859.81;1701413;84;20206;-58
2022/08/22 06:51:49;;;;;;;;;;;;;;;28.68;60.68;154874.27;1701586;84;20202;-59
2022/08/22 06:54:18;;;;;;;;;;;;;;;28.70;61.08;154879.52;1667437;84;21237;-69
2022/08/22 06:56:45;;;;;;;;;;;;;;;28.80;61.16;154905.80;1695272;84;20190;-70
2022/08/22 06:59:15;;;;;;;;;;;;;;;28.94;60.38;154941.23;1701848;82;20183;-70
2022/08/22 07:01:48;;;;;;;;;;;;;;;28.99;60.40;154953.06;1700630;82;20368;-71
2022/08/22 07:04:15;;;;;;;;;;;;;;;29.04;59.59;154966.19;1699029;83;20245;-70
2022/08/22 07:06:48;;;;;;;;;;;;;;;28.99;59.18;154953.06;1703426;84;21694;-70
2022/08/22 07:09:36;;;;;;;;;;;;;;;29.00;59.29;154955.69;1700860;84;20206;-58
2022/08/22 07:12:06;;;;;;;;;;;;;;;29.15;59.00;154995.09;1702947;83;20179;-59
2022/08/22 07:14:44;;;;;;;;;;;;;;;29.25;58.06;155020.05;1701887;84;20194;-59
2022/08/22 07:17:20;;;;;;;;;;;;;;;29.34;57.94;155042.38;1703940;82;20173;-59
2022/08/22 07:20:04;;;;;;;;;;;;;;;29.41;58.04;155060.78;1703598;82;21243;-59
2022/08/22 07:22:33;;;;;;;;;;;;;;;29.59;57.77;155105.45;1699277;84;20270;-60
2022/08/22 07:25:12;;;;;;;;;;;;;;;29.71;57.73;155136.94;1698165;84;20171;-60
2022/08/22 07:28:06;;;;;;;;;;;;;;;29.90;56.94;155184.23;1701976;82;20182;-60
2022/08/22 07:30:43;;;;;;;;;;;;;;;30.09;56.03;155231.58;1699380;84;20202;-59
2022/08/22 07:33:19;;;;;;;;;;;;;;;30.22;55.47;155265.75;1696781;84;21253;-69
2022/08/22 07:35:49;;;;;;;;;;;;;;;30.41;55.48;155313.06;1703459;84;20250;-70
2022/08/22 07:38:24;;;;;;;;;;;;;;;30.45;54.38;155323.56;1697956;82;20174;-69
2022/08/22 07:41:13;;;;;;;;;;;;;;;30.38;53.87;155305.14;1690283;84;21041;-70
2022/08/22 07:43:43;;;;;;;;;;;;;;;30.29;53.16;155282.84;1696261;82;20301;-69
2022/08/22 07:46:31;;;;;;;;;;;;;;;30.26;53.88;155276.25;1701317;84;20980;-70
2022/08/22 07:49:08;;;;;;;;;;;;;;;30.37;54.40;155303.84;1698186;82;20186;-68
2022/08/22 07:51:57;;;;;;;;;;;;;;;30.43;53.55;155318.31;1701046;84;20186;-70
2022/08/22 07:54:28;;;;;;;;;;;;;;;30.47;52.86;155328.81;1704773;82;20162;-69
2022/08/22 07:57:05;;;;;;;;;;;;;;;30.49;52.98;155334.06;1701518;84;20172;-70
2022/08/22 07:59:34;;;;;;;;;;;;;;;30.49;52.31;155332.72;1700623;82;21750;-69
2022/08/22 08:02:02;;;;;;;;;;;;;;;30.44;52.65;155320.94;1702542;84;20599;-69
2022/08/22 08:04:30;;;;;;;;;;;;;;;30.40;52.45;155311.72;1674472;84;20646;-69
2022/08/22 08:06:59;;;;;;;;;;;;;;;30.30;52.60;155285.47;1688636;84;20639;-69
2022/08/22 08:09:29;;;;;;;;;;;;;;;30.22;52.91;155265.75;1697168;84;20226;-67
2022/08/22 08:11:56;;;;;;;;;;;;;;;30.15;52.42;155248.67;1703232;82;21255;-69
2022/08/22 08:14:22;;;;;;;;;;;;;;;30.14;52.90;155244.70;1696578;83;20277;-69
2022/08/22 08:16:56;;;;;;;;;;;;;;;30.15;52.73;155247.33;1704544;82;20186;-68
2022/08/22 08:19:24;;;;;;;;;;;;;;;30.05;52.46;155221.08;1700531;82;20175;-68
2022/08/22 08:21:52;;;;;;;;;;;;;;;29.96;52.98;155200.03;1698526;84;20237;-68
2022/08/22 08:24:36;;;;;;;;;;;;;;;30.01;53.32;155213.20;1702630;84;21251;-68
2022/08/22 08:29:54;;;;;;;;;;;;;;;30.14;53.21;155244.70;1698839;82;20174;-67
2022/08/22 08:32:22;;;;;;;;;;;;;;;30.16;53.26;155249.95;1700387;84;20145;-67
2022/08/22 08:34:50;;;;;;;;;;;;;;;30.23;52.61;155267.05;1695619;83;20207;-68
2022/08/22 08:37:40;;;;;;;;;;;;;;;30.30;51.65;155286.75;1700916;83;21262;-68
2022/08/22 08:40:10;;;;;;;;;;;;;;;30.47;51.61;155328.81;1697394;83;20451;-68
2022/08/22 08:43:27;;;;;;;;;;;;;;;30.67;50.66;155378.80;1696148;83;20237;-68
2022/08/22 08:46:17;;;;;;;;;;;;;;;30.78;49.67;155407.69;1701665;84;20178;-68
2022/08/22 08:49:08;;;;;;;;;;;;;;;30.71;49.03;155389.30;1701812;83;20190;-69
2022/08/22 08:51:54;;;;;;;;;;;;;;;30.49;49.88;155334.06;1696839;84;21184;-68
2022/08/22 08:54:56;;;;;;;;;;;;;;;30.28;50.55;155280.17;1698127;84;20222;-69
2022/08/22 08:57:45;;;;;;;;;;;;;;;30.24;50.37;155271.00;1698426;84;20206;-68
2022/08/22 09:00:39;;;;;;;;;;;;;;;30.24;48.38;155271.00;1699236;84;20940;-69
2022/08/22 09:03:12;;;;;;;;;;;;;;;30.30;48.26;155286.75;1630871;86;20238;-67
2022/08/22 09:06:05;;;;;;;;;;;;;;;30.38;47.72;155305.14;1683948;82;21294;-68
2022/08/22 09:08:56;;;;;;;;;;;;;;;30.42;46.34;155315.69;1699057;82;20180;-68
2022/08/22 09:11:29;;;;;;;;;;;;;;;30.45;46.49;155323.56;1697335;82;20213;-68
2022/08/22 09:14:27;;;;;;;;;;;;;;;30.38;46.27;155306.47;1701634;82;20190;-68
2022/08/22 09:17:06;;;;;;;;;;;;;;;30.39;46.58;155307.75;1696692;84;20174;-68
2022/08/22 09:19:47;;;;;;;;;;;;;;;30.55;46.80;155348.53;1649990;82;21288;-69
2022/08/22 09:22:36;;;;;;;;;;;;;;;30.67;46.63;155378.80;1699419;84;20206;-68
2022/08/22 09:25:32;;;;;;;;;;;;;;;30.85;46.47;155426.13;1704331;84;20201;-68
2022/08/22 09:28:19;;;;;;;;;;;;;;;31.01;46.77;155465.50;1698737;82;20222;-68
2022/08/22 09:31:02;;;;;;;;;;;;;;;31.04;46.92;155473.39;1704780;83;20443;-68
2022/08/22 09:33:50;;;;;;;;;;;;;;;31.11;46.40;155491.81;1698174;84;23159;-68
2022/08/22 09:36:32;;;;;;;;;;;;;;;31.13;45.64;155497.06;1702951;83;20653;-70
2022/08/22 09:39:21;;;;;;;;;;;;;;;31.06;45.09;155478.69;1697487;84;20164;-68
2022/08/22 09:41:54;;;;;;;;;;;;;;;31.01;44.84;155465.50;1699623;83;20181;-67
2022/08/22 09:44:27;;;;;;;;;;;;;;;31.01;44.73;155465.50;1703258;84;20218;-69
2022/08/22 09:47:07;;;;;;;;;;;;;;;30.97;45.15;155455.00;1702525;84;21088;-68
2022/08/22 09:49:43;;;;;;;;;;;;;;;31.03;44.73;155469.47;1707924;82;20250;-68
2022/08/22 09:52:23;;;;;;;;;;;;;;;31.02;44.80;155468.13;1702170;82;20233;-69
2022/08/22 09:55:13;;;;;;;;;;;;;;;31.01;45.16;155465.50;1700767;82;20171;-69
2022/08/22 09:57:51;;;;;;;;;;;;;;;31.16;44.60;155504.95;1701675;84;20226;-68
2022/08/22 10:00:26;;;;;;;;;;;;;;;31.22;44.21;155519.47;1703729;82;21214;-69
2022/08/22 10:03:12;;;;;;;;;;;;;;;31.37;44.12;155557.58;1700135;84;20186;-69
2022/08/22 10:05:45;;;;;;;;;;;;;;;31.40;43.79;155565.47;1689444;84;20147;-69
2022/08/22 10:08:27;;;;;;;;;;;;;;;31.34;44.26;155549.70;1679477;85;20506;-61
2022/08/22 10:11:27;;;;;;;;;;;;;;;31.29;44.33;155536.56;1675410;84;20182;-60
2022/08/22 10:14:02;;;;;;;;;;;;;;;31.09;44.76;155485.22;1650554;85;21099;-60
2022/08/22 10:17:06;;;;;;;;;;;;;;;30.84;45.23;155423.48;1682763;85;20317;-60
2022/08/22 10:19:39;;;;;;;;;;;;;;;30.81;45.69;155414.28;1680036;84;20178;-60
2022/08/22 10:22:27;;;;;;;;;;;;;;;30.80;45.70;155411.64;1685295;84;20328;-60
2022/08/22 10:25:00;;;;;;;;;;;;;;;30.86;46.08;155428.73;1685976;83;20205;-60
2022/08/22 10:27:47;;;;;;;;;;;;;;;30.97;45.93;155455.00;1682162;85;22149;-60
2022/08/22 10:30:27;;;;;;;;;;;;;;;31.06;45.91;155478.69;1682276;83;20605;-60
2022/08/22 10:33:09;;;;;;;;;;;;;;;31.18;45.66;155507.58;1674476;83;20157;-61
2022/08/22 10:35:52;;;;;;;;;;;;;;;31.26;45.56;155529.97;1681409;85;20471;-59
2022/08/22 10:38:22;;;;;;;;;;;;;;;31.28;45.37;155533.89;1680214;84;20278;-69
2022/08/22 10:40:59;;;;;;;;;;;;;;;31.21;45.55;155515.50;1679835;85;21217;-69
2022/08/22 10:43:50;;;;;;;;;;;;;;;31.18;45.78;155508.92;1681429;85;20174;-69
2022/08/22 10:46:32;;;;;;;;;;;;;;;31.22;45.79;155518.13;1682827;83;20384;-69
2022/08/22 10:49:06;;;;;;;;;;;;;;;31.25;46.42;155526.00;1675122;85;20211;-68
2022/08/22 10:51:36;;;;;;;;;;;;;;;31.27;46.10;155532.59;1681029;84;20171;-69
2022/08/22 10:54:32;;;;;;;;;;;;;;;31.29;46.14;155536.56;1680323;83;21256;-69
2022/08/22 10:57:26;;;;;;;;;;;;;;;31.35;45.85;155550.98;1678219;85;20179;-68
2022/08/22 11:00:18;;;;;;;;;;;;;;;31.40;46.05;155565.47;1679097;85;20195;-61
2022/08/22 11:02:59;;;;;;;;;;;;;;;31.48;46.61;155585.19;1678171;85;20563;-61
2022/08/22 11:05:31;;;;;;;;;;;;;;;31.42;46.18;155570.72;1687543;84;20185;-61
2022/08/22 11:08:15;;;;;;;;;;;;;;;31.23;45.90;155520.75;1701001;84;21147;-62
2022/08/22 11:11:14;;;;;;;;;;;;;;;31.01;45.98;155465.50;1701417;83;20193;-61
2022/08/22 11:14:12;;;;;;;;;;;;;;;30.92;46.06;155441.88;1694220;82;20190;-61
2022/08/22 11:16:59;;;;;;;;;;;;;;;30.95;46.51;155451.09;1702214;84;21270;-61
2022/08/22 11:19:42;;;;;;;;;;;;;;;31.12;46.40;155493.11;1705529;82;20186;-61
2022/08/22 11:22:33;;;;;;;;;;;;;;;31.36;46.09;155554.95;1699281;83;21133;-61
2022/08/22 11:25:07;;;;;;;;;;;;;;;31.56;45.12;155604.91;1695482;83;20145;-60
2022/08/22 11:27:44;;;;;;;;;;;;;;;31.54;44.59;155599.66;1694663;83;20497;-61
2022/08/22 11:30:16;;;;;;;;;;;;;;;31.36;44.73;155553.61;1698611;84;20195;-60
2022/08/22 11:32:54;;;;;;;;;;;;;;;31.15;45.04;155502.33;1699878;84;20122;-60
2022/08/22 11:35:23;;;;;;;;;;;;;;;31.03;45.44;155470.75;1696263;84;22045;-59
2022/08/22 11:38:01;;;;;;;;;;;;;;;30.97;45.46;155455.00;1697895;84;20182;-60
2022/08/22 11:40:45;;;;;;;;;;;;;;;30.99;45.80;155460.25;1663508;86;20200;-60
2022/08/22 11:43:37;;;;;;;;;;;;;;;31.06;46.25;155478.69;1663564;84;20385;-61
2022/08/22 11:46:16;;;;;;;;;;;;;;;31.21;46.35;155515.50;1663434;84;20149;-69
2022/08/22 11:48:47;;;;;;;;;;;;;;;31.44;45.77;155575.97;1657645;85;21154;-70
2022/08/22 11:51:33;;;;;;;;;;;;;;;31.52;45.48;155594.41;1663711;84;20290;-70
2022/08/22 11:54:13;;;;;;;;;;;;;;;31.46;45.68;155578.59;1699636;84;20194;-69
2022/08/22 11:56:47;;;;;;;;;;;;;;;31.35;45.52;155550.98;1697853;83;20224;-69
2022/08/22 11:59:23;;;;;;;;;;;;;;;31.33;46.11;155547.08;1699928;84;20482;-69
2022/08/22 12:01:53;;;;;;;;;;;;;;;31.46;45.90;155578.59;1691791;84;21149;-69
2022/08/22 12:04:31;;;;;;;;;;;;;;;31.61;45.48;155618.05;1699989;84;20183;-68
2022/08/22 12:07:11;;;;;;;;;;;;;;;31.80;45.23;155665.44;1700553;82;20226;-69
2022/08/22 12:09:50;;;;;;;;;;;;;;;31.88;44.77;155686.45;1697536;83;20418;-69
2022/08/22 12:12:24;;;;;;;;;;;;;;;31.84;44.81;155677.28;1696433;83;20233;-69
2022/08/22 12:15:01;;;;;;;;;;;;;;;31.78;45.18;155661.47;1700802;83;23140;-68
2022/08/22 12:17:53;;;;;;;;;;;;;;;31.65;45.59;155628.56;1698672;84;20238;-69
2022/08/22 12:20:44;;;;;;;;;;;;;;;31.62;45.20;155620.67;1694084;82;20222;-69
2022/08/22 12:23:30;;;;;;;;;;;;;;;31.76;45.57;155654.88;1697563;84;20214;-69
2022/08/22 12:26:19;;;;;;;;;;;;;;;31.97;45.10;155708.81;1698779;84;20999;-69
2022/08/22 12:29:06;;;;;;;;;;;;;;;32.11;45.21;155745.64;1698673;83;22008;-69
2022/08/22 12:31:40;;;;;;;;;;;;;;;32.17;44.86;155760.12;1693506;82;20470;-71
2022/08/22 12:34:11;;;;;;;;;;;;;;;32.07;45.14;155733.80;1699593;84;20186;-69
2022/08/22 12:37:01;;;;;;;;;;;;;;;31.94;45.18;155702.22;1699238;82;20622;-69
2022/08/22 12:39:40;;;;;;;;;;;;;;;31.78;45.77;155660.19;1697451;84;21296;-68
2022/08/22 12:42:22;;;;;;;;;;;;;;;31.72;45.65;155647.00;1700406;84;21265;-70
2022/08/22 12:45:05;;;;;;;;;;;;;;;31.71;46.15;155644.31;1700904;83;20484;-69
2022/08/22 12:47:50;;;;;;;;;;;;;;;31.83;46.58;155674.66;1698770;83;20495;-69
2022/08/22 12:50:38;;;;;;;;;;;;;;;32.04;46.27;155725.92;1678264;84;21247;-70
2022/08/22 12:53:23;;;;;;;;;;;;;;;32.21;45.87;155770.64;1695466;84;20206;-61
2022/08/22 12:56:14;;;;;;;;;;;;;;;32.24;45.57;155778.53;1693179;83;21223;-60
2022/08/22 12:59:11;;;;;;;;;;;;;;;32.10;46.25;155741.69;1635707;84;20238;-61
2022/08/22 13:01:43;;;;;;;;;;;;;;;31.99;46.93;155715.41;1697047;84;20174;-60
2022/08/22 13:04:16;;;;;;;;;;;;;;;32.04;46.99;155725.92;1698967;82;20233;-60
2022/08/22 13:06:46;;;;;;;;;;;;;;;32.10;46.80;155743.03;1695201;82;20316;-60
2022/08/22 13:09:18;;;;;;;;;;;;;;;32.28;46.64;155789.03;1700050;84;21900;-61
2022/08/22 13:11:46;;;;;;;;;;;;;;;32.36;46.64;155807.47;1703018;82;20153;-61
2022/08/22 13:14:14;;;;;;;;;;;;;;;32.38;47.03;155814.06;1700216;84;20421;-60
2022/08/22 13:16:43;;;;;;;;;;;;;;;32.38;46.86;155812.73;1703216;84;20491;-60
2022/08/22 13:19:21;;;;;;;;;;;;;;;32.35;46.41;155806.19;1706396;82;20535;-59
2022/08/22 13:21:54;;;;;;;;;;;;;;;32.20;46.94;155766.67;1701836;84;21248;-59
2022/08/22 13:24:36;;;;;;;;;;;;;;;32.07;48.34;155733.80;1702261;83;20501;-59
2022/08/22 13:27:06;;;;;;;;;;;;;;;32.19;47.60;155765.37;1704045;84;20157;-61
2022/08/22 13:29:42;;;;;;;;;;;;;;;32.38;46.62;155812.73;1702378;84;20820;-60
2022/08/22 13:32:12;;;;;;;;;;;;;;;32.44;46.14;155829.84;1701888;81;20212;-61
2022/08/22 13:34:45;;;;;;;;;;;;;;;32.56;45.55;155860.09;1695215;83;21198;-61
2022/08/22 13:37:17;;;;;;;;;;;;;;;32.55;45.04;155857.45;1703028;81;20232;-70
2022/08/22 13:39:45;;;;;;;;;;;;;;;32.56;44.85;155860.09;1701599;84;20169;-69
2022/08/22 13:42:17;;;;;;;;;;;;;;;32.51;44.71;155846.94;1698730;84;20774;-69